sensor_id;sensor_type;location;lat;lon;timestamp;P1;durP1;ratioP1;P2;durP2;ratioP2
43554;SDS011;35085;40.398;-3.702;2024-03-08T00:09:45;4.15;;;1.85;;
43554;SDS011;35085;40.398;-3.702;2024-03-08T00:19:53;4.95;;;2.13;;
43554;SDS011;35085;40.398;-3.702;2024-03-08T00:29:55;6.22;;;2.92;;
43554;SDS011;35085;40.398;-3.702;2024-03-08T00:40:03;13.90;;;5.38;;
43554;SDS011;35085;40.398;-3.702;2024-03-08T00:50:11;8.77;;;3.05;;
43554;SDS011;35085;40.398;-3.702;2024-03-08T01:00:19;6.72;;;2.60;;
43554;SDS011;35085;40.398;-3.702;2024-03-08T01:10:21;10.82;;;3.53;;
43554;SDS011;35085;40.398;-3.702;2024-03-08T01:20:29;6.70;;;3.30;;
43554;SDS011;35085;40.398;-3.702;2024-03-08T01:30:37;6.13;;;1.73;;
43554;SDS011;35085;40.398;-3.702;2024-03-08T01:40:45;2.17;;;1.00;;
43554;SDS011;35085;40.398;-3.702;2024-03-08T01:50:47;1.35;;;0.52;;
43554;SDS011;35085;40.398;-3.702;2024-03-08T02:00:53;3.13;;;0.55;;
43554;SDS011;35085;40.398;-3.702;2024-03-08T02:10:55;2.17;;;0.25;;
43554;SDS011;35085;40.398;-3.702;2024-03-08T02:21:04;9.73;;;1.08;;
43554;SDS011;35085;40.398;-3.702;2024-03-08T02:31:05;1.10;;;0.47;;
43554;SDS011;35085;40.398;-3.702;2024-03-08T02:41:12;1.30;;;0.40;;
43554;SDS011;35085;40.398;-3.702;2024-03-08T02:51:14;1.77;;;0.55;;
43554;SDS011;35085;40.398;-3.702;2024-03-08T03:01:22;0.93;;;0.30;;
43554;SDS011;35085;40.398;-3.702;2024-03-08T03:11:25;0.45;;;0.20;;
43554;SDS011;35085;40.398;-3.702;2024-03-08T03:21:33;2.20;;;0.35;;
43554;SDS011;35085;40.398;-3.702;2024-03-08T03:31:42;1.50;;;0.40;;
43554;SDS011;35085;40.398;-3.702;2024-03-08T03:41:48;4.13;;;0.40;;
43554;SDS011;35085;40.398;-3.702;2024-03-08T03:51:55;1.73;;;0.50;;
43554;SDS011;35085;40.398;-3.702;2024-03-08T04:02:03;2.20;;;0.52;;
43554;SDS011;35085;40.398;-3.702;2024-03-08T04:12:12;1.90;;;0.60;;
43554;SDS011;35085;40.398;-3.702;2024-03-08T04:22:19;1.83;;;0.47;;
43554;SDS011;35085;40.398;-3.702;2024-03-08T04:32:22;1.77;;;0.63;;
43554;SDS011;35085;40.398;-3.702;2024-03-08T04:42:29;2.05;;;0.30;;
43554;SDS011;35085;40.398;-3.702;2024-03-08T04:52:36;5.30;;;0.60;;
43554;SDS011;35085;40.398;-3.702;2024-03-08T05:02:44;1.20;;;0.35;;
43554;SDS011;35085;40.398;-3.702;2024-03-08T05:12:46;1.25;;;0.30;;
43554;SDS011;35085;40.398;-3.702;2024-03-08T05:22:54;2.35;;;0.40;;
43554;SDS011;35085;40.398;-3.702;2024-03-08T05:33:03;2.70;;;0.40;;
43554;SDS011;35085;40.398;-3.702;2024-03-08T05:43:10;2.65;;;0.20;;
43554;SDS011;35085;40.398;-3.702;2024-03-08T05:53:18;3.55;;;0.40;;
43554;SDS011;35085;40.398;-3.702;2024-03-08T06:03:27;1.60;;;0.38;;
43554;SDS011;35085;40.398;-3.702;2024-03-08T06:13:28;1.75;;;0.70;;
43554;SDS011;35085;40.398;-3.702;2024-03-08T06:23:35;3.17;;;0.60;;
43554;SDS011;35085;40.398;-3.702;2024-03-08T06:33:42;3.08;;;0.95;;
43554;SDS011;35085;40.398;-3.702;2024-03-08T06:43:50;2.47;;;1.08;;
43554;SDS011;35085;40.398;-3.702;2024-03-08T06:53:58;3.83;;;1.10;;
43554;SDS011;35085;40.398;-3.702;2024-03-08T07:04:06;2.80;;;1.67;;
43554;SDS011;35085;40.398;-3.702;2024-03-08T07:14:08;3.97;;;2.05;;
43554;SDS011;35085;40.398;-3.702;2024-03-08T07:24:16;3.22;;;1.52;;
43554;SDS011;35085;40.398;-3.702;2024-03-08T07:34:24;5.40;;;0.75;;
43554;SDS011;35085;40.398;-3.702;2024-03-08T07:44:32;1.92;;;0.52;;
43554;SDS011;35085;40.398;-3.702;2024-03-08T07:54:34;3.50;;;0.93;;
43554;SDS011;35085;40.398;-3.702;2024-03-08T08:04:42;1.77;;;0.50;;
43554;SDS011;35085;40.398;-3.702;2024-03-08T08:14:51;0.83;;;0.30;;
43554;SDS011;35085;40.398;-3.702;2024-03-08T08:24:59;3.92;;;0.50;;
43554;SDS011;35085;40.398;-3.702;2024-03-08T08:35:10;1.98;;;0.47;;
43554;SDS011;35085;40.398;-3.702;2024-03-08T08:45:16;11.40;;;4.65;;
43554;SDS011;35085;40.398;-3.702;2024-03-08T08:55:24;3.85;;;0.70;;
43554;SDS011;35085;40.398;-3.702;2024-03-08T09:05:33;7.18;;;0.98;;
43554;SDS011;35085;40.398;-3.702;2024-03-08T09:15:41;3.70;;;0.98;;
43554;SDS011;35085;40.398;-3.702;2024-03-08T09:25:48;7.50;;;1.20;;
43554;SDS011;35085;40.398;-3.702;2024-03-08T09:35:50;6.90;;;1.50;;
43554;SDS011;35085;40.398;-3.702;2024-03-08T09:45:57;4.28;;;0.95;;
43554;SDS011;35085;40.398;-3.702;2024-03-08T09:55:58;7.50;;;1.00;;
43554;SDS011;35085;40.398;-3.702;2024-03-08T10:06:06;7.28;;;1.00;;
43554;SDS011;35085;40.398;-3.702;2024-03-08T10:16:14;6.68;;;1.25;;
43554;SDS011;35085;40.398;-3.702;2024-03-08T10:26:22;4.22;;;0.57;;
43554;SDS011;35085;40.398;-3.702;2024-03-08T10:36:31;7.70;;;0.93;;
43554;SDS011;35085;40.398;-3.702;2024-03-08T10:46:47;8.80;;;1.40;;
43554;SDS011;35085;40.398;-3.702;2024-03-08T10:56:57;6.32;;;1.27;;
43554;SDS011;35085;40.398;-3.702;2024-03-08T11:07:05;6.72;;;1.20;;
43554;SDS011;35085;40.398;-3.702;2024-03-08T11:17:14;7.85;;;1.10;;
43554;SDS011;35085;40.398;-3.702;2024-03-08T11:27:19;9.20;;;1.05;;
43554;SDS011;35085;40.398;-3.702;2024-03-08T11:37:21;4.32;;;0.88;;
43554;SDS011;35085;40.398;-3.702;2024-03-08T11:47:30;6.20;;;1.08;;
43554;SDS011;35085;40.398;-3.702;2024-03-08T11:57:39;16.40;;;2.53;;
43554;SDS011;35085;40.398;-3.702;2024-03-08T12:07:55;4.40;;;0.77;;
43554;SDS011;35085;40.398;-3.702;2024-03-08T12:18:04;4.75;;;0.65;;
43554;SDS011;35085;40.398;-3.702;2024-03-08T12:28:12;6.05;;;0.82;;
43554;SDS011;35085;40.398;-3.702;2024-03-08T12:38:22;5.03;;;0.70;;
43554;SDS011;35085;40.398;-3.702;2024-03-08T12:48:29;10.55;;;1.17;;
43554;SDS011;35085;40.398;-3.702;2024-03-08T12:58:41;4.93;;;1.10;;
43554;SDS011;35085;40.398;-3.702;2024-03-08T13:08:50;4.78;;;0.90;;
43554;SDS011;35085;40.398;-3.702;2024-03-08T13:18:59;4.53;;;1.00;;
43554;SDS011;35085;40.398;-3.702;2024-03-08T13:29:06;7.05;;;1.00;;
43554;SDS011;35085;40.398;-3.702;2024-03-08T13:39:15;3.63;;;0.70;;
43554;SDS011;35085;40.398;-3.702;2024-03-08T13:49:23;3.47;;;0.80;;
43554;SDS011;35085;40.398;-3.702;2024-03-08T13:59:30;3.97;;;0.88;;
43554;SDS011;35085;40.398;-3.702;2024-03-08T14:09:37;5.72;;;1.00;;
43554;SDS011;35085;40.398;-3.702;2024-03-08T14:19:44;3.70;;;0.50;;
43554;SDS011;35085;40.398;-3.702;2024-03-08T14:29:52;2.85;;;0.77;;
43554;SDS011;35085;40.398;-3.702;2024-03-08T14:39:59;2.33;;;0.73;;
43554;SDS011;35085;40.398;-3.702;2024-03-08T14:50:07;5.97;;;0.75;;
43554;SDS011;35085;40.398;-3.702;2024-03-08T15:00:16;5.30;;;0.67;;
43554;SDS011;35085;40.398;-3.702;2024-03-08T15:10:23;4.00;;;0.47;;
43554;SDS011;35085;40.398;-3.702;2024-03-08T15:20:33;2.72;;;0.55;;
43554;SDS011;35085;40.398;-3.702;2024-03-08T15:30:39;4.03;;;1.55;;
43554;SDS011;35085;40.398;-3.702;2024-03-08T15:40:40;7.63;;;1.20;;
43554;SDS011;35085;40.398;-3.702;2024-03-08T15:50:50;4.43;;;0.73;;
43554;SDS011;35085;40.398;-3.702;2024-03-08T16:00:58;3.53;;;0.90;;
43554;SDS011;35085;40.398;-3.702;2024-03-08T16:11:06;5.88;;;1.50;;
43554;SDS011;35085;40.398;-3.702;2024-03-08T16:21:07;7.28;;;1.20;;
43554;SDS011;35085;40.398;-3.702;2024-03-08T16:31:16;3.95;;;0.43;;
43554;SDS011;35085;40.398;-3.702;2024-03-08T16:41:17;2.03;;;0.40;;
43554;SDS011;35085;40.398;-3.702;2024-03-08T16:51:26;2.80;;;0.93;;
43554;SDS011;35085;40.398;-3.702;2024-03-08T17:01:27;3.50;;;0.40;;
43554;SDS011;35085;40.398;-3.702;2024-03-08T17:11:36;2.60;;;0.40;;
43554;SDS011;35085;40.398;-3.702;2024-03-08T17:21:37;1.67;;;0.65;;
43554;SDS011;35085;40.398;-3.702;2024-03-08T17:31:46;3.05;;;0.60;;
43554;SDS011;35085;40.398;-3.702;2024-03-08T17:41:53;3.20;;;0.90;;
43554;SDS011;35085;40.398;-3.702;2024-03-08T17:52:01;1.80;;;0.60;;
43554;SDS011;35085;40.398;-3.702;2024-03-08T18:02:08;3.17;;;0.98;;
43554;SDS011;35085;40.398;-3.702;2024-03-08T18:12:13;2.70;;;0.98;;
43554;SDS011;35085;40.398;-3.702;2024-03-08T18:22:22;4.25;;;1.42;;
43554;SDS011;35085;40.398;-3.702;2024-03-08T18:32:30;1.80;;;0.70;;
43554;SDS011;35085;40.398;-3.702;2024-03-08T18:42:31;4.80;;;0.70;;
43554;SDS011;35085;40.398;-3.702;2024-03-08T18:52:38;6.07;;;1.20;;
43554;SDS011;35085;40.398;-3.702;2024-03-08T19:02:47;7.57;;;2.63;;
43554;SDS011;35085;40.398;-3.702;2024-03-08T19:12:53;4.50;;;1.05;;
43554;SDS011;35085;40.398;-3.702;2024-03-08T19:23:04;4.47;;;0.80;;
43554;SDS011;35085;40.398;-3.702;2024-03-08T19:33:12;7.10;;;1.52;;
43554;SDS011;35085;40.398;-3.702;2024-03-08T19:43:21;6.60;;;2.07;;
43554;SDS011;35085;40.398;-3.702;2024-03-08T19:53:27;12.18;;;4.80;;
43554;SDS011;35085;40.398;-3.702;2024-03-08T20:03:29;7.80;;;2.25;;
43554;SDS011;35085;40.398;-3.702;2024-03-08T20:13:35;7.18;;;2.08;;
43554;SDS011;35085;40.398;-3.702;2024-03-08T20:23:43;7.05;;;3.28;;
43554;SDS011;35085;40.398;-3.702;2024-03-08T20:33:51;16.02;;;5.65;;
43554;SDS011;35085;40.398;-3.702;2024-03-08T20:43:59;16.58;;;3.78;;
43554;SDS011;35085;40.398;-3.702;2024-03-08T20:54:07;6.18;;;2.42;;
43554;SDS011;35085;40.398;-3.702;2024-03-08T21:04:09;6.95;;;2.20;;
43554;SDS011;35085;40.398;-3.702;2024-03-08T21:14:15;5.45;;;2.33;;
43554;SDS011;35085;40.398;-3.702;2024-03-08T21:24:23;8.75;;;3.55;;
43554;SDS011;35085;40.398;-3.702;2024-03-08T21:34:31;8.20;;;2.63;;
43554;SDS011;35085;40.398;-3.702;2024-03-08T21:44:40;10.37;;;3.40;;
43554;SDS011;35085;40.398;-3.702;2024-03-08T21:54:48;4.15;;;1.80;;
43554;SDS011;35085;40.398;-3.702;2024-03-08T22:04:57;5.30;;;1.83;;
43554;SDS011;35085;40.398;-3.702;2024-03-08T22:15:06;6.40;;;1.80;;
43554;SDS011;35085;40.398;-3.702;2024-03-08T22:25:13;4.90;;;2.08;;
43554;SDS011;35085;40.398;-3.702;2024-03-08T22:35:19;5.72;;;2.00;;
43554;SDS011;35085;40.398;-3.702;2024-03-08T22:45:26;4.50;;;1.80;;
43554;SDS011;35085;40.398;-3.702;2024-03-08T22:55:34;10.77;;;2.78;;
43554;SDS011;35085;40.398;-3.702;2024-03-08T23:05:42;2.88;;;1.40;;
43554;SDS011;35085;40.398;-3.702;2024-03-08T23:15:48;4.85;;;1.90;;
43554;SDS011;35085;40.398;-3.702;2024-03-08T23:25:50;4.38;;;1.67;;
43554;SDS011;35085;40.398;-3.702;2024-03-08T23:35:58;10.10;;;3.80;;
43554;SDS011;35085;40.398;-3.702;2024-03-08T23:46:06;6.97;;;2.40;;
43554;SDS011;35085;40.398;-3.702;2024-03-08T23:56:14;5.43;;;2.83;;
